Time;durP1;ratioP1;P1;durP2;ratioP2;P2;SDS_P1;SDS_P2;PMS_P1;PMS_P2;Temp;Humidity;BMP_temperature;BMP_pressure;BME280_temperature;BME280_humidity;BME280_pressure;Samples;Min_cycle;Max_cycle;Signal;HPM_P1;HPM_P2
2021/05/12 00:00:19;;;;;;;2.53;1.80;;;;;;;;;;4963104;28;20549;-75
2021/05/12 00:02:46;;;;;;;2.90;1.80;;;;;;;;;;4955779;28;20515;-75
2021/05/12 00:05:12;;;;;;;1.53;1.43;;;;;;;;;;4964297;28;20874;-75
2021/05/12 00:07:39;;;;;;;1.63;1.53;;;;;;;;;;4972944;28;20516;-75
2021/05/12 00:10:06;;;;;;;3.70;1.60;;;;;;;;;;4971242;28;20458;-75
2021/05/12 00:12:32;;;;;;;2.33;1.60;;;;;;;;;;4977316;28;20832;-76
2021/05/12 00:14:58;;;;;;;5.20;2.07;;;;;;;;;;4973794;28;20464;-75
2021/05/12 00:17:27;;;;;;;1.80;1.60;;;;;;;;;;4962453;28;20460;-75
2021/05/12 00:19:59;;;;;;;2.00;1.80;;;;;;;;;;4964382;28;20446;-75
2021/05/12 00:22:49;;;;;;;2.00;1.50;;;;;;;;;;4964898;28;20421;-75
2021/05/12 00:25:14;;;;;;;2.03;1.50;;;;;;;;;;4959111;28;20529;-75
2021/05/12 00:27:41;;;;;;;1.80;1.70;;;;;;;;;;4966398;28;20545;-76
2021/05/12 00:30:09;;;;;;;3.47;2.40;;;;;;;;;;4978320;28;21085;-76
2021/05/12 00:32:38;;;;;;;1.40;1.30;;;;;;;;;;4968833;28;20453;-76
2021/05/12 00:35:05;;;;;;;1.47;1.30;;;;;;;;;;4969728;28;20476;-75
2021/05/12 00:37:31;;;;;;;2.37;1.60;;;;;;;;;;4963142;28;20979;-78
2021/05/12 00:39:57;;;;;;;2.87;2.30;;;;;;;;;;4967930;28;20483;-76
2021/05/12 00:42:28;;;;;;;1.90;1.60;;;;;;;;;;4968376;28;20474;-75
2021/05/12 00:44:54;;;;;;;2.50;1.90;;;;;;;;;;4962116;28;20450;-74
2021/05/12 00:47:24;;;;;;;1.53;1.40;;;;;;;;;;4961428;28;20678;-75
2021/05/12 00:49:50;;;;;;;1.40;1.30;;;;;;;;;;4971850;28;20526;-75
2021/05/12 00:52:16;;;;;;;1.10;1.00;;;;;;;;;;4944574;28;20541;-75
2021/05/12 00:54:42;;;;;;;1.87;1.73;;;;;;;;;;4968298;28;21011;-75
2021/05/12 00:57:08;;;;;;;1.50;1.40;;;;;;;;;;4953736;28;20497;-74
2021/05/12 00:59:35;;;;;;;1.83;1.67;;;;;;;;;;4974503;28;20430;-75
2021/05/12 01:02:01;;;;;;;1.23;1.13;;;;;;;;;;4967326;28;20461;-75
2021/05/12 01:04:28;;;;;;;3.07;1.70;;;;;;;;;;4969278;28;20617;-78
2021/05/12 01:06:54;;;;;;;1.53;1.23;;;;;;;;;;4961230;28;20446;-75
2021/05/12 01:09:20;;;;;;;2.10;1.90;;;;;;;;;;4965273;28;20434;-75
2021/05/12 01:11:46;;;;;;;1.50;1.40;;;;;;;;;;4972225;28;20457;-74
2021/05/12 01:14:12;;;;;;;1.40;1.30;;;;;;;;;;4969872;28;20445;-75
2021/05/12 01:16:40;;;;;;;1.17;1.00;;;;;;;;;;4955151;28;20925;-75
2021/05/12 01:19:06;;;;;;;1.30;1.20;;;;;;;;;;4963569;28;20434;-76
2021/05/12 01:21:32;;;;;;;1.77;1.33;;;;;;;;;;4967967;28;20469;-74
2021/05/12 01:23:58;;;;;;;1.60;1.50;;;;;;;;;;4964525;28;20443;-75
2021/05/12 01:26:24;;;;;;;1.40;1.30;;;;;;;;;;4939816;28;20454;-75
2021/05/12 01:28:52;;;;;;;6.00;1.80;;;;;;;;;;4963211;28;20453;-75
2021/05/12 01:31:38;;;;;;;2.40;1.90;;;;;;;;;;4961133;28;20478;-75
2021/05/12 01:34:05;;;;;;;1.40;1.30;;;;;;;;;;4962452;28;20450;-77
2021/05/12 01:36:31;;;;;;;2.70;1.73;;;;;;;;;;4964400;28;20492;-75
2021/05/12 01:38:58;;;;;;;2.10;1.90;;;;;;;;;;4967053;28;20432;-75
2021/05/12 01:41:26;;;;;;;1.50;1.40;;;;;;;;;;4970584;28;20474;-75
2021/05/12 01:43:52;;;;;;;1.57;1.47;;;;;;;;;;4962822;28;20522;-76
2021/05/12 01:46:18;;;;;;;2.20;1.50;;;;;;;;;;4968512;28;20801;-75
2021/05/12 01:48:45;;;;;;;2.23;1.80;;;;;;;;;;4967697;28;20822;-75
2021/05/12 01:51:11;;;;;;;2.70;1.73;;;;;;;;;;4962914;28;20855;-76
2021/05/12 01:53:37;;;;;;;5.77;2.00;;;;;;;;;;4969417;28;20798;-75
2021/05/12 01:56:04;;;;;;;2.00;1.50;;;;;;;;;;4972381;28;21027;-75
2021/05/12 01:58:30;;;;;;;2.10;1.80;;;;;;;;;;4979610;28;20436;-75
2021/05/12 02:00:56;;;;;;;1.70;1.60;;;;;;;;;;4965622;28;20449;-76
2021/05/12 02:03:22;;;;;;;1.53;1.37;;;;;;;;;;4975493;28;20444;-75
2021/05/12 02:05:49;;;;;;;1.73;1.63;;;;;;;;;;4964657;28;20438;-75
2021/05/12 02:08:22;;;;;;;1.80;1.70;;;;;;;;;;4971671;28;20446;-75
2021/05/12 02:10:53;;;;;;;1.90;1.80;;;;;;;;;;4953544;28;20501;-75
2021/05/12 02:13:19;;;;;;;2.40;1.77;;;;;;;;;;4954313;28;20442;-76
2021/05/12 02:15:45;;;;;;;1.93;1.60;;;;;;;;;;4960639;28;21049;-76
2021/05/12 02:18:12;;;;;;;2.67;2.20;;;;;;;;;;4956567;28;20870;-75
2021/05/12 02:20:38;;;;;;;3.07;2.30;;;;;;;;;;4959775;28;21209;-75
2021/05/12 02:23:06;;;;;;;2.87;2.37;;;;;;;;;;4966560;28;20847;-75
2021/05/12 02:25:32;;;;;;;5.57;2.60;;;;;;;;;;4965669;28;20452;-75
2021/05/12 02:27:58;;;;;;;2.77;2.30;;;;;;;;;;4941516;28;20530;-75
2021/05/12 02:30:25;;;;;;;3.90;3.10;;;;;;;;;;4963298;28;20564;-75
2021/05/12 02:32:51;;;;;;;4.50;3.40;;;;;;;;;;4960013;28;20457;-75
2021/05/12 02:35:18;;;;;;;4.27;2.93;;;;;;;;;;4969405;28;20478;-76
2021/05/12 02:37:44;;;;;;;3.10;2.60;;;;;;;;;;4959813;28;20926;-75
2021/05/12 02:40:12;;;;;;;4.30;3.37;;;;;;;;;;4967461;28;20891;-75
2021/05/12 02:42:38;;;;;;;3.77;2.80;;;;;;;;;;4965339;28;20498;-76
2021/05/12 02:45:06;;;;;;;3.80;3.23;;;;;;;;;;4957750;28;20470;-75
2021/05/12 02:47:32;;;;;;;4.97;3.40;;;;;;;;;;4970668;28;20492;-75
2021/05/12 02:49:58;;;;;;;5.13;3.40;;;;;;;;;;4957362;28;20442;-75
2021/05/12 02:52:24;;;;;;;3.33;3.00;;;;;;;;;;4964554;28;20448;-75
2021/05/12 02:54:50;;;;;;;5.07;3.10;;;;;;;;;;4961567;28;20470;-77
2021/05/12 02:57:16;;;;;;;5.37;3.60;;;;;;;;;;4962871;28;21228;-75
2021/05/12 02:59:42;;;;;;;6.23;3.60;;;;;;;;;;4957278;28;20442;-75
2021/05/12 03:02:09;;;;;;;5.27;3.70;;;;;;;;;;4966020;28;20461;-75
2021/05/12 03:04:35;;;;;;;6.23;4.20;;;;;;;;;;4965713;28;20438;-76
2021/05/12 03:07:01;;;;;;;4.30;3.90;;;;;;;;;;4959929;28;20443;-76
2021/05/12 03:09:27;;;;;;;5.07;3.47;;;;;;;;;;4965310;28;20445;-75
2021/05/12 03:11:54;;;;;;;6.47;3.80;;;;;;;;;;4961223;28;20466;-75
2021/05/12 03:14:21;;;;;;;8.27;3.97;;;;;;;;;;4964242;28;21078;-75
2021/05/12 03:16:47;;;;;;;4.70;3.70;;;;;;;;;;4959273;28;20529;-76
2021/05/12 03:19:13;;;;;;;5.60;3.80;;;;;;;;;;4964854;28;20431;-75
2021/05/12 03:21:39;;;;;;;5.53;4.07;;;;;;;;;;4960584;28;20477;-76
2021/05/12 03:24:06;;;;;;;5.80;3.90;;;;;;;;;;4970426;28;20807;-75
2021/05/12 03:26:32;;;;;;;4.47;3.90;;;;;;;;;;4958567;28;20436;-76
2021/05/12 03:28:58;;;;;;;4.07;3.43;;;;;;;;;;4965621;28;20897;-76
2021/05/12 03:31:24;;;;;;;3.90;3.20;;;;;;;;;;4965913;28;20508;-75
2021/05/12 03:33:55;;;;;;;5.77;3.87;;;;;;;;;;4960045;28;20458;-75
2021/05/12 03:36:22;;;;;;;3.50;3.00;;;;;;;;;;4968281;28;20461;-75
2021/05/12 03:38:48;;;;;;;4.70;3.63;;;;;;;;;;4963626;28;20456;-76
2021/05/12 03:41:14;;;;;;;7.20;4.17;;;;;;;;;;4959925;28;20832;-75
2021/05/12 03:43:40;;;;;;;4.90;4.20;;;;;;;;;;4962481;28;20451;-76
2021/05/12 03:46:06;;;;;;;6.40;4.47;;;;;;;;;;4964403;28;21151;-77
2021/05/12 03:48:32;;;;;;;6.10;4.10;;;;;;;;;;4946630;28;20445;-75
2021/05/12 03:51:00;;;;;;;5.10;4.00;;;;;;;;;;4965635;28;20480;-75
2021/05/12 03:53:27;;;;;;;3.97;3.50;;;;;;;;;;4962402;28;20441;-76
2021/05/12 03:55:53;;;;;;;6.43;4.57;;;;;;;;;;4963474;28;20552;-75
2021/05/12 03:58:19;;;;;;;4.60;3.50;;;;;;;;;;4958466;28;20570;-76
2021/05/12 04:00:46;;;;;;;3.67;3.33;;;;;;;;;;4960519;28;20465;-75
2021/05/12 04:03:12;;;;;;;5.87;4.27;;;;;;;;;;4968464;28;20446;-75
2021/05/12 04:05:38;;;;;;;6.00;3.93;;;;;;;;;;4956681;28;20534;-75
2021/05/12 04:08:04;;;;;;;6.30;4.53;;;;;;;;;;4968097;28;20450;-75
2021/05/12 04:10:30;;;;;;;6.10;4.30;;;;;;;;;;4970701;28;20476;-75
2021/05/12 04:12:57;;;;;;;5.53;4.30;;;;;;;;;;4965724;28;20824;-75
2021/05/12 04:15:23;;;;;;;8.20;4.10;;;;;;;;;;4962598;28;20466;-74
2021/05/12 04:17:49;;;;;;;7.20;4.63;;;;;;;;;;4961516;28;20504;-75
2021/05/12 04:20:17;;;;;;;6.60;4.00;;;;;;;;;;4962853;28;21136;-75
2021/05/12 04:22:44;;;;;;;7.27;4.33;;;;;;;;;;4961891;28;20446;-75
2021/05/12 04:25:12;;;;;;;6.83;3.33;;;;;;;;;;4966942;28;20820;-76
2021/05/12 04:27:38;;;;;;;6.63;3.63;;;;;;;;;;4957800;28;20450;-76
2021/05/12 04:30:12;;;;;;;5.07;3.97;;;;;;;;;;4961706;28;20446;-76
2021/05/12 04:32:39;;;;;;;5.63;3.77;;;;;;;;;;4962545;28;20457;-75
2021/05/12 04:35:05;;;;;;;6.90;4.03;;;;;;;;;;4962611;28;21015;-75
2021/05/12 04:37:31;;;;;;;5.23;4.20;;;;;;;;;;4954218;28;20912;-77
2021/05/12 04:39:57;;;;;;;4.27;3.43;;;;;;;;;;4961794;28;20480;-76
2021/05/12 04:42:23;;;;;;;4.80;3.70;;;;;;;;;;4951889;28;20522;-76
2021/05/12 04:44:49;;;;;;;6.00;4.13;;;;;;;;;;4946741;28;20493;-75
2021/05/12 04:47:15;;;;;;;7.00;4.57;;;;;;;;;;4964518;28;20442;-75
2021/05/12 04:49:41;;;;;;;7.87;4.83;;;;;;;;;;4965562;28;20455;-75
2021/05/12 04:52:07;;;;;;;7.60;5.40;;;;;;;;;;4952955;28;20462;-76
2021/05/12 04:54:33;;;;;;;9.50;5.07;;;;;;;;;;4957115;28;20467;-75
2021/05/12 04:56:59;;;;;;;7.83;4.57;;;;;;;;;;4963203;28;20443;-75
2021/05/12 04:59:26;;;;;;;6.20;4.13;;;;;;;;;;4963624;28;20447;-75
2021/05/12 05:01:52;;;;;;;6.83;4.97;;;;;;;;;;4965142;28;20461;-75
2021/05/12 05:04:18;;;;;;;11.87;5.00;;;;;;;;;;4970759;28;20444;-75
2021/05/12 05:06:44;;;;;;;5.30;3.83;;;;;;;;;;4953493;28;20784;-76
2021/05/12 05:09:10;;;;;;;5.90;4.20;;;;;;;;;;4967088;28;20444;-77
2021/05/12 05:11:36;;;;;;;8.70;4.70;;;;;;;;;;4965690;28;20449;-75
2021/05/12 05:14:02;;;;;;;7.30;4.83;;;;;;;;;;4948597;28;20981;-75
2021/05/12 05:16:28;;;;;;;9.13;4.30;;;;;;;;;;4946140;28;20454;-74
2021/05/12 05:18:55;;;;;;;5.23;3.80;;;;;;;;;;4957880;28;21091;-74
2021/05/12 05:21:21;;;;;;;5.73;4.13;;;;;;;;;;4955865;28;20484;-74
2021/05/12 05:23:48;;;;;;;5.90;4.40;;;;;;;;;;4967289;28;20450;-71
2021/05/12 05:26:14;;;;;;;10.00;4.57;;;;;;;;;;4965187;28;20442;-73
2021/05/12 05:28:39;;;;;;;5.40;4.37;;;;;;;;;;4960683;28;20452;-75
2021/05/12 05:31:05;;;;;;;6.13;4.20;;;;;;;;;;4942797;28;20854;-75
2021/05/12 05:33:32;;;;;;;5.93;4.13;;;;;;;;;;4970362;28;20588;-77
2021/05/12 05:35:57;;;;;;;7.13;5.40;;;;;;;;;;4969617;28;20505;-75
2021/05/12 05:38:23;;;;;;;7.00;4.60;;;;;;;;;;4951477;28;20478;-75
2021/05/12 05:40:49;;;;;;;6.53;4.20;;;;;;;;;;4965685;28;20477;-74
2021/05/12 05:43:16;;;;;;;6.20;3.47;;;;;;;;;;4970325;28;20449;-75
2021/05/12 05:45:42;;;;;;;5.10;3.87;;;;;;;;;;4962368;28;20524;-76
2021/05/12 05:48:09;;;;;;;5.50;4.00;;;;;;;;;;4945301;28;20474;-75
2021/05/12 05:50:35;;;;;;;6.03;4.47;;;;;;;;;;4964203;28;20811;-75
2021/05/12 05:53:02;;;;;;;7.70;3.70;;;;;;;;;;4964383;28;20438;-75
2021/05/12 05:55:28;;;;;;;6.83;3.17;;;;;;;;;;4964650;28;20470;-76
2021/05/12 05:57:55;;;;;;;5.73;3.90;;;;;;;;;;4966845;28;20512;-76
2021/05/12 06:00:21;;;;;;;5.53;4.17;;;;;;;;;;4962749;28;20473;-76
2021/05/12 06:02:47;;;;;;;8.40;4.43;;;;;;;;;;4953594;28;20593;-76
2021/05/12 06:05:13;;;;;;;5.50;4.17;;;;;;;;;;4958863;28;20987;-75
2021/05/12 06:07:39;;;;;;;2.97;2.67;;;;;;;;;;4966522;28;20485;-75
2021/05/12 06:10:06;;;;;;;5.10;3.47;;;;;;;;;;4959633;28;20532;-76
2021/05/12 06:12:32;;;;;;;4.70;2.87;;;;;;;;;;4958325;28;20441;-74
2021/05/12 06:14:58;;;;;;;3.80;2.90;;;;;;;;;;4964815;28;20481;-74
2021/05/12 06:17:26;;;;;;;6.17;4.03;;;;;;;;;;4960053;28;20433;-75
2021/05/12 06:19:52;;;;;;;4.73;3.53;;;;;;;;;;4965410;28;20461;-76
2021/05/12 06:22:18;;;;;;;3.43;3.13;;;;;;;;;;4966841;28;20449;-75
2021/05/12 06:24:44;;;;;;;4.17;3.73;;;;;;;;;;4957330;28;20481;-75
2021/05/12 06:27:10;;;;;;;7.83;3.63;;;;;;;;;;4961229;28;20446;-74
2021/05/12 06:29:38;;;;;;;7.70;4.53;;;;;;;;;;4965522;28;20797;-75
2021/05/12 06:32:05;;;;;;;4.90;3.50;;;;;;;;;;4956780;28;20478;-75
2021/05/12 06:34:32;;;;;;;7.00;3.93;;;;;;;;;;4967275;28;21046;-75
2021/05/12 06:36:58;;;;;;;6.17;4.17;;;;;;;;;;4963731;28;20461;-72
2021/05/12 06:39:25;;;;;;;5.10;3.40;;;;;;;;;;4963210;28;21535;-73
2021/05/12 06:41:51;;;;;;;4.47;3.57;;;;;;;;;;4963783;28;20464;-72
2021/05/12 06:44:17;;;;;;;7.13;4.53;;;;;;;;;;4967198;28;20439;-72
2021/05/12 06:46:43;;;;;;;5.40;3.27;;;;;;;;;;4957860;28;20960;-73
2021/05/12 06:49:09;;;;;;;7.47;4.40;;;;;;;;;;4964023;28;20436;-74
2021/05/12 06:51:35;;;;;;;5.93;3.77;;;;;;;;;;4954889;28;20480;-71
2021/05/12 06:54:01;;;;;;;4.90;3.87;;;;;;;;;;4959485;28;20434;-74
2021/05/12 06:56:27;;;;;;;8.93;4.33;;;;;;;;;;4963621;28;20569;-73
2021/05/12 06:58:53;;;;;;;4.67;3.60;;;;;;;;;;4965219;28;20444;-73
2021/05/12 07:01:20;;;;;;;4.83;3.40;;;;;;;;;;4943395;28;20538;-73
2021/05/12 07:03:46;;;;;;;7.60;3.93;;;;;;;;;;4953036;28;20437;-74
2021/05/12 07:06:12;;;;;;;5.87;3.70;;;;;;;;;;4964429;28;20553;-74
2021/05/12 07:08:38;;;;;;;6.60;4.17;;;;;;;;;;4962495;28;20917;-73
2021/05/12 07:11:05;;;;;;;5.93;3.70;;;;;;;;;;4946271;28;20468;-74
2021/05/12 07:13:31;;;;;;;5.13;4.37;;;;;;;;;;4950719;29;20533;-73
2021/05/12 07:15:57;;;;;;;6.73;3.73;;;;;;;;;;4954110;28;20466;-76
2021/05/12 07:18:23;;;;;;;5.17;3.20;;;;;;;;;;4962365;28;20527;-75
2021/05/12 07:20:49;;;;;;;4.60;3.23;;;;;;;;;;4971012;28;20443;-75
2021/05/12 07:23:20;;;;;;;5.43;3.47;;;;;;;;;;4960288;28;20573;-76
2021/05/12 07:25:48;;;;;;;4.60;3.30;;;;;;;;;;4963231;28;20541;-75
2021/05/12 07:28:14;;;;;;;5.50;3.63;;;;;;;;;;4960108;28;20804;-75
2021/05/12 07:30:41;;;;;;;7.80;4.20;;;;;;;;;;4954924;28;20470;-75
2021/05/12 07:33:07;;;;;;;4.80;3.30;;;;;;;;;;4961899;28;20442;-74
2021/05/12 07:35:33;;;;;;;7.40;3.37;;;;;;;;;;4956388;28;20459;-76
2021/05/12 07:37:59;;;;;;;4.07;2.77;;;;;;;;;;4957590;28;20488;-74
2021/05/12 07:40:25;;;;;;;5.90;3.37;;;;;;;;;;4948630;28;20471;-76
2021/05/12 07:42:53;;;;;;;5.03;3.70;;;;;;;;;;4959636;28;20569;-74
2021/05/12 07:45:19;;;;;;;5.00;3.57;;;;;;;;;;4973021;28;20446;-74
2021/05/12 07:47:45;;;;;;;4.73;3.63;;;;;;;;;;4953075;28;20454;-74
2021/05/12 07:50:11;;;;;;;6.80;3.53;;;;;;;;;;4955957;28;20482;-75
2021/05/12 07:52:38;;;;;;;3.87;2.73;;;;;;;;;;4955708;28;20505;-74
2021/05/12 07:55:04;;;;;;;3.90;2.93;;;;;;;;;;4955079;28;20474;-75
2021/05/12 07:57:30;;;;;;;3.53;2.60;;;;;;;;;;4976465;28;20438;-75
2021/05/12 07:59:57;;;;;;;2.90;2.60;;;;;;;;;;4944259;28;20473;-75
2021/05/12 08:02:22;;;;;;;2.97;2.53;;;;;;;;;;4970583;28;20461;-74
2021/05/12 08:04:48;;;;;;;3.67;2.57;;;;;;;;;;4960044;28;20951;-75
2021/05/12 08:07:15;;;;;;;2.60;2.40;;;;;;;;;;4956462;28;20470;-75
2021/05/12 08:09:41;;;;;;;3.30;3.00;;;;;;;;;;4962478;28;20486;-75
2021/05/12 08:12:08;;;;;;;3.60;2.97;;;;;;;;;;4968798;28;20462;-75
2021/05/12 08:14:34;;;;;;;4.50;2.87;;;;;;;;;;4959297;28;20445;-74
2021/05/12 08:17:00;;;;;;;3.00;2.27;;;;;;;;;;4963522;28;21006;-75
2021/05/12 08:19:26;;;;;;;3.10;2.80;;;;;;;;;;4970167;28;20429;-75
2021/05/12 08:21:52;;;;;;;2.40;2.20;;;;;;;;;;4954813;28;20459;-74
2021/05/12 08:24:18;;;;;;;3.50;3.20;;;;;;;;;;4968526;28;20430;-75
2021/05/12 08:26:44;;;;;;;4.17;2.60;;;;;;;;;;4971453;28;20446;-75
2021/05/12 08:29:10;;;;;;;2.40;1.97;;;;;;;;;;4966843;28;20911;-75
2021/05/12 08:31:39;;;;;;;2.67;1.90;;;;;;;;;;4968014;28;20472;-75
2021/05/12 08:34:06;;;;;;;3.57;2.00;;;;;;;;;;4969182;28;20445;-75
2021/05/12 08:36:34;;;;;;;2.20;1.60;;;;;;;;;;4954593;28;21018;-75
2021/05/12 08:39:00;;;;;;;1.30;1.20;;;;;;;;;;4961276;28;20443;-76
2021/05/12 08:41:26;;;;;;;4.73;3.00;;;;;;;;;;4952040;28;20493;-75
2021/05/12 08:43:52;;;;;;;0.93;0.90;;;;;;;;;;4972292;28;20446;-75
2021/05/12 08:46:19;;;;;;;2.10;1.30;;;;;;;;;;4961508;28;20445;-74
2021/05/12 08:48:46;;;;;;;1.23;0.70;;;;;;;;;;4967753;28;20433;-74
2021/05/12 08:51:14;;;;;;;0.60;0.60;;;;;;;;;;4966258;28;20457;-74
2021/05/12 08:53:40;;;;;;;1.97;1.00;;;;;;;;;;4958961;28;20442;-75
2021/05/12 08:56:07;;;;;;;2.70;1.30;;;;;;;;;;4955986;28;20532;-74
2021/05/12 08:58:33;;;;;;;1.77;1.40;;;;;;;;;;4960245;28;20965;-78
2021/05/12 09:00:59;;;;;;;2.40;0.97;;;;;;;;;;4972491;28;20543;-74
2021/05/12 09:03:27;;;;;;;0.90;0.90;;;;;;;;;;4973567;28;20442;-75
2021/05/12 09:05:53;;;;;;;1.20;1.10;;;;;;;;;;4968392;28;20478;-74
2021/05/12 09:08:19;;;;;;;1.73;0.70;;;;;;;;;;4961100;28;20434;-74
2021/05/12 09:10:45;;;;;;;1.17;0.50;;;;;;;;;;4966716;28;20768;-74
2021/05/12 09:13:28;;;;;;;0.80;0.60;;;;;;;;;;4973519;28;20443;-74
2021/05/12 09:15:57;;;;;;;1.53;0.60;;;;;;;;;;4959913;28;20503;-74
2021/05/12 09:18:29;;;;;;;0.60;0.60;;;;;;;;;;4955673;28;20502;-73
2021/05/12 09:20:55;;;;;;;0.83;0.60;;;;;;;;;;4957779;28;20533;-75
2021/05/12 09:23:22;;;;;;;0.67;0.67;;;;;;;;;;4958412;28;20473;-74
2021/05/12 09:25:56;;;;;;;2.00;0.60;;;;;;;;;;4966002;28;20817;-74
2021/05/12 09:28:22;;;;;;;1.77;0.63;;;;;;;;;;4951739;28;20465;-74
2021/05/12 09:30:50;;;;;;;1.77;0.50;;;;;;;;;;4952227;28;20478;-75
2021/05/12 09:33:25;;;;;;;1.00;0.90;;;;;;;;;;4951993;28;20454;-75
2021/05/12 09:35:51;;;;;;;0.70;0.60;;;;;;;;;;4970175;28;20473;-74
2021/05/12 09:38:31;;;;;;;0.50;0.50;;;;;;;;;;4962756;28;20434;-74
2021/05/12 09:41:04;;;;;;;0.60;0.60;;;;;;;;;;4948846;28;20454;-74
2021/05/12 09:43:33;;;;;;;0.70;0.60;;;;;;;;;;4964242;28;20437;-74
2021/05/12 09:46:20;;;;;;;0.70;0.70;;;;;;;;;;4962088;28;20826;-74
2021/05/12 09:48:47;;;;;;;3.07;1.10;;;;;;;;;;4952381;28;20458;-73
2021/05/12 09:51:19;;;;;;;1.07;0.70;;;;;;;;;;4963496;28;20469;-75
2021/05/12 09:54:04;;;;;;;3.20;1.13;;;;;;;;;;4960322;28;20497;-74
2021/05/12 09:56:37;;;;;;;2.47;0.60;;;;;;;;;;4963948;28;20475;-74
2021/05/12 09:59:08;;;;;;;3.17;0.80;;;;;;;;;;4951096;28;20983;-74
2021/05/12 10:01:45;;;;;;;0.53;0.53;;;;;;;;;;4969961;28;20465;-74
2021/05/12 10:04:25;;;;;;;1.00;0.67;;;;;;;;;;4961884;28;20472;-75
2021/05/12 10:06:51;;;;;;;0.50;0.50;;;;;;;;;;4958844;28;20445;-74
2021/05/12 10:09:18;;;;;;;1.07;0.70;;;;;;;;;;4964489;28;20457;-74
2021/05/12 10:11:59;;;;;;;0.60;0.60;;;;;;;;;;4958242;28;20824;-76
2021/05/12 10:14:25;;;;;;;1.13;0.60;;;;;;;;;;4967485;28;20432;-75
2021/05/12 10:16:51;;;;;;;4.77;0.70;;;;;;;;;;4963448;28;20495;-76
2021/05/12 10:19:20;;;;;;;0.50;0.50;;;;;;;;;;4961970;28;20438;-75
2021/05/12 10:21:47;;;;;;;2.97;0.53;;;;;;;;;;4966866;28;21126;-74
2021/05/12 10:24:13;;;;;;;5.80;0.57;;;;;;;;;;4962807;28;25584;-74
2021/05/12 10:26:42;;;;;;;0.50;0.50;;;;;;;;;;4961017;28;20551;-74
2021/05/12 10:29:08;;;;;;;1.00;0.70;;;;;;;;;;4960055;28;20434;-74
2021/05/12 10:31:34;;;;;;;0.63;0.63;;;;;;;;;;4956726;28;20532;-74
2021/05/12 10:34:01;;;;;;;1.20;0.53;;;;;;;;;;4958442;28;20529;-75
2021/05/12 10:36:27;;;;;;;1.93;0.73;;;;;;;;;;4954135;28;20475;-75
2021/05/12 10:38:56;;;;;;;0.63;0.47;;;;;;;;;;4957385;28;20425;-75
2021/05/12 10:41:42;;;;;;;1.20;0.70;;;;;;;;;;4956529;28;20458;-75
2021/05/12 10:44:21;;;;;;;3.73;1.10;;;;;;;;;;4950402;28;20940;-75
2021/05/12 10:46:49;;;;;;;0.63;0.40;;;;;;;;;;4962904;28;20433;-75
2021/05/12 10:49:22;;;;;;;1.23;0.60;;;;;;;;;;4966176;28;20451;-75
2021/05/12 10:51:48;;;;;;;0.73;0.60;;;;;;;;;;4948217;28;20469;-74
2021/05/12 10:54:15;;;;;;;0.90;0.70;;;;;;;;;;4958434;28;20443;-76
2021/05/12 10:56:43;;;;;;;1.80;0.50;;;;;;;;;;4959613;28;21129;-76
2021/05/12 10:59:10;;;;;;;2.73;0.80;;;;;;;;;;4943266;28;21098;-74
2021/05/12 11:01:43;;;;;;;1.03;0.70;;;;;;;;;;4960089;28;20455;-75
2021/05/12 11:04:09;;;;;;;0.77;0.60;;;;;;;;;;4959092;28;20445;-75
2021/05/12 11:06:35;;;;;;;1.03;0.80;;;;;;;;;;4967619;28;20454;-75
2021/05/12 11:09:10;;;;;;;3.17;0.73;;;;;;;;;;4956462;28;20439;-75
2021/05/12 11:11:39;;;;;;;1.50;0.73;;;;;;;;;;4962103;28;20498;-75
2021/05/12 11:14:19;;;;;;;3.27;0.93;;;;;;;;;;4970250;28;20441;-75
2021/05/12 11:17:03;;;;;;;2.00;1.17;;;;;;;;;;4956825;28;20519;-75
2021/05/12 11:19:51;;;;;;;0.50;0.50;;;;;;;;;;4954033;28;20438;-75
2021/05/12 11:25:12;;;;;;;1.90;1.10;;;;;;;;;;4965913;28;22776;-74
2021/05/12 11:32:32;;;;;;;0.90;0.70;;;;;;;;;;4968794;28;20477;-72
2021/05/12 11:34:58;;;;;;;2.83;0.60;;;;;;;;;;4958091;28;20603;-77
2021/05/12 11:37:26;;;;;;;0.53;0.53;;;;;;;;;;4957024;28;20514;-75
2021/05/12 11:39:54;;;;;;;1.37;1.27;;;;;;;;;;4965678;28;20441;-75
2021/05/12 11:42:21;;;;;;;7.10;1.27;;;;;;;;;;4947737;28;20561;-76
2021/05/12 11:44:47;;;;;;;3.43;0.70;;;;;;;;;;4961663;28;20476;-76
2021/05/12 11:47:27;;;;;;;2.40;0.83;;;;;;;;;;4961503;28;20952;-75
2021/05/12 11:49:53;;;;;;;2.10;1.10;;;;;;;;;;4965765;28;20443;-74
2021/05/12 11:52:26;;;;;;;1.03;0.70;;;;;;;;;;4967232;28;20501;-75
2021/05/12 11:54:52;;;;;;;1.17;0.73;;;;;;;;;;4957330;28;20979;-75
2021/05/12 11:57:18;;;;;;;3.77;0.93;;;;;;;;;;4961755;28;20560;-77
2021/05/12 11:59:44;;;;;;;3.63;0.70;;;;;;;;;;4960443;28;20552;-75
2021/05/12 12:02:11;;;;;;;2.33;0.83;;;;;;;;;;4964423;28;20497;-75
2021/05/12 12:05:00;;;;;;;3.43;0.60;;;;;;;;;;4955500;28;20438;-76
2021/05/12 12:07:26;;;;;;;0.70;0.50;;;;;;;;;;4954884;28;20959;-74
2021/05/12 12:10:02;;;;;;;2.33;0.60;;;;;;;;;;4963788;28;20434;-74
2021/05/12 12:12:28;;;;;;;3.00;0.77;;;;;;;;;;4955322;28;20477;-75
2021/05/12 12:15:03;;;;;;;1.23;0.70;;;;;;;;;;4962519;28;20974;-77
2021/05/12 12:17:29;;;;;;;0.67;0.60;;;;;;;;;;4955151;28;20477;-75
2021/05/12 12:20:03;;;;;;;0.53;0.50;;;;;;;;;;4961608;28;20438;-75
2021/05/12 12:22:29;;;;;;;0.80;0.80;;;;;;;;;;4972862;28;20426;-75
2021/05/12 12:24:56;;;;;;;1.43;0.40;;;;;;;;;;4949224;28;20436;-75
2021/05/12 12:27:22;;;;;;;1.70;0.50;;;;;;;;;;4969606;28;20434;-75
2021/05/12 12:29:49;;;;;;;2.83;1.07;;;;;;;;;;4972675;28;20430;-76
2021/05/12 12:32:16;;;;;;;0.70;0.40;;;;;;;;;;4968966;28;20461;-75
2021/05/12 12:34:46;;;;;;;1.17;0.83;;;;;;;;;;4961773;28;20484;-75
2021/05/12 12:37:15;;;;;;;1.37;1.00;;;;;;;;;;4965951;28;20430;-77
2021/05/12 12:39:47;;;;;;;0.70;0.63;;;;;;;;;;4954364;28;20442;-75
2021/05/12 12:42:16;;;;;;;1.13;0.63;;;;;;;;;;4966114;28;20561;-77
2021/05/12 12:44:43;;;;;;;0.60;0.50;;;;;;;;;;4976241;28;20999;-75
2021/05/12 12:47:15;;;;;;;0.80;0.40;;;;;;;;;;4948019;28;20488;-74
2021/05/12 12:49:47;;;;;;;1.33;0.60;;;;;;;;;;4958733;28;20445;-76
2021/05/12 12:52:40;;;;;;;5.70;0.57;;;;;;;;;;4954965;28;20485;-75
2021/05/12 12:55:11;;;;;;;4.37;1.10;;;;;;;;;;4964162;28;20473;-76
2021/05/12 12:57:44;;;;;;;2.10;1.33;;;;;;;;;;4961122;28;20433;-76
2021/05/12 13:00:10;;;;;;;1.20;0.60;;;;;;;;;;4970791;28;20461;-76
2021/05/12 13:02:40;;;;;;;2.00;0.77;;;;;;;;;;4951018;28;20438;-75
2021/05/12 13:05:15;;;;;;;4.63;0.73;;;;;;;;;;4960469;28;20517;-77
2021/05/12 13:07:41;;;;;;;5.80;0.80;;;;;;;;;;4966098;28;20486;-75
2021/05/12 13:10:27;;;;;;;1.33;0.70;;;;;;;;;;4958286;28;20826;-72
2021/05/12 13:12:53;;;;;;;1.67;1.57;;;;;;;;;;4970706;28;20454;-73
2021/05/12 13:15:20;;;;;;;3.43;0.87;;;;;;;;;;4958968;28;20837;-76
2021/05/12 13:17:53;;;;;;;3.20;0.70;;;;;;;;;;4951285;28;20521;-74
2021/05/12 13:20:20;;;;;;;3.07;0.77;;;;;;;;;;4964588;28;20465;-73
2021/05/12 13:22:59;;;;;;;2.50;0.63;;;;;;;;;;4959821;28;20472;-73
2021/05/12 13:25:25;;;;;;;1.70;1.20;;;;;;;;;;4954264;28;20429;-72
2021/05/12 13:27:51;;;;;;;1.90;0.80;;;;;;;;;;4965987;28;20932;-73
2021/05/12 13:30:17;;;;;;;2.77;0.57;;;;;;;;;;4985229;28;20469;-75
2021/05/12 13:32:43;;;;;;;1.03;0.50;;;;;;;;;;4986942;28;20976;-77
2021/05/12 13:35:09;;;;;;;2.63;0.67;;;;;;;;;;4971445;28;20496;-75
2021/05/12 13:37:38;;;;;;;1.40;0.60;;;;;;;;;;4956143;28;20633;-76
2021/05/12 13:40:05;;;;;;;0.93;0.70;;;;;;;;;;4965512;28;20952;-73
2021/05/12 13:42:30;;;;;;;0.83;0.50;;;;;;;;;;4970905;28;20433;-74
2021/05/12 13:44:57;;;;;;;1.13;0.50;;;;;;;;;;4955929;28;20464;-74
2021/05/12 13:47:23;;;;;;;1.23;0.83;;;;;;;;;;4954649;28;20449;-72
2021/05/12 13:49:49;;;;;;;1.30;0.90;;;;;;;;;;4956439;28;20538;-73
2021/05/12 13:52:21;;;;;;;2.00;0.60;;;;;;;;;;4962396;28;20461;-74
2021/05/12 13:54:53;;;;;;;1.23;0.53;;;;;;;;;;4976087;28;20469;-73
2021/05/12 13:57:59;;;;;;;3.07;0.80;;;;;;;;;;4967690;28;20433;-73
2021/05/12 14:02:54;;;;;;;0.47;0.47;;;;;;;;;;4960244;28;20447;-74
2021/05/12 14:05:21;;;;;;;1.40;0.63;;;;;;;;;;4955740;28;20437;-74
2021/05/12 14:07:47;;;;;;;4.57;1.00;;;;;;;;;;4971091;28;20451;-75
2021/05/12 14:10:16;;;;;;;0.73;0.73;;;;;;;;;;4967375;28;20576;-73
2021/05/12 14:12:49;;;;;;;2.43;0.80;;;;;;;;;;4978433;28;20493;-75
2021/05/12 14:15:33;;;;;;;1.77;0.80;;;;;;;;;;4972097;28;20494;-74
2021/05/12 14:18:00;;;;;;;7.10;0.80;;;;;;;;;;4961629;28;20429;-74
2021/05/12 14:20:26;;;;;;;1.23;1.13;;;;;;;;;;4967094;28;20533;-74
2021/05/12 14:22:52;;;;;;;3.37;1.23;;;;;;;;;;4967041;28;20513;-75
2021/05/12 14:25:18;;;;;;;1.63;0.60;;;;;;;;;;4963378;28;20971;-74
2021/05/12 14:27:48;;;;;;;1.53;0.70;;;;;;;;;;4955946;28;20811;-74
2021/05/12 14:30:14;;;;;;;1.27;0.60;;;;;;;;;;4940478;28;21005;-74
2021/05/12 14:32:40;;;;;;;1.47;0.70;;;;;;;;;;4949976;28;20465;-74
2021/05/12 14:35:06;;;;;;;0.60;0.50;;;;;;;;;;4957686;28;20576;-74
2021/05/12 14:37:32;;;;;;;0.60;0.60;;;;;;;;;;4968718;28;20955;-75
2021/05/12 14:39:58;;;;;;;2.50;0.60;;;;;;;;;;4965729;28;20960;-74
2021/05/12 14:42:24;;;;;;;1.43;0.90;;;;;;;;;;4970209;28;20501;-75
2021/05/12 14:44:50;;;;;;;0.70;0.60;;;;;;;;;;4954820;28;20463;-74
2021/05/12 14:47:16;;;;;;;1.70;1.43;;;;;;;;;;4957842;28;20441;-74
2021/05/12 14:49:43;;;;;;;0.90;0.80;;;;;;;;;;4960444;28;20441;-75
2021/05/12 14:52:34;;;;;;;2.47;1.00;;;;;;;;;;4970000;28;20462;-75
2021/05/12 15:00:46;;;;;;;1.77;0.50;;;;;;;;;;4971923;28;20467;-74
2021/05/12 15:03:10;;;;;;;1.40;0.87;;;;;;;;;;4956947;28;20439;-73